createdAt,value
2017-11-14T00:01:59.991Z,10.87
2017-11-14T00:04:27.516Z,9.40
2017-11-14T00:06:55.028Z,8.60
2017-11-14T00:09:22.695Z,9.43
2017-11-14T00:11:50.228Z,8.50
2017-11-14T00:14:17.739Z,9.07
2017-11-14T00:16:45.326Z,9.20
2017-11-14T00:19:12.857Z,9.50
2017-11-14T00:21:40.889Z,9.63
2017-11-14T00:24:08.410Z,10.27
2017-11-14T00:26:35.925Z,10.93
2017-11-14T00:29:03.503Z,9.93
2017-11-14T00:31:31.018Z,11.20
2017-11-14T00:33:58.542Z,10.77
2017-11-14T00:36:26.529Z,9.73
2017-11-14T00:38:54.046Z,9.43
2017-11-14T00:41:21.567Z,10.63
2017-11-14T00:43:49.114Z,10.27
2017-11-14T00:46:16.779Z,9.87
2017-11-14T00:48:44.317Z,11.33
2017-11-14T00:51:11.842Z,11.13
2017-11-14T00:53:39.392Z,11.70
2017-11-14T00:56:06.918Z,10.00
2017-11-14T00:58:34.463Z,9.50
2017-11-14T01:01:01.991Z,12.60
2017-11-14T01:03:29.650Z,12.17
2017-11-14T01:05:57.178Z,12.10
2017-11-14T01:08:24.704Z,11.77
2017-11-14T01:10:52.408Z,10.93
2017-11-14T01:13:19.941Z,10.13
2017-11-14T01:15:47.473Z,12.00
2017-11-14T01:18:15.380Z,9.90
2017-11-14T01:20:42.902Z,12.00
2017-11-14T01:23:10.429Z,10.80
2017-11-14T01:25:37.976Z,10.77
2017-11-14T01:28:05.494Z,10.17
2017-11-14T01:30:33.368Z,10.17
2017-11-14T01:33:00.902Z,9.23
2017-11-14T01:35:28.408Z,9.40
2017-11-14T01:37:56.059Z,11.73
2017-11-14T01:40:23.583Z,9.37
2017-11-14T01:42:51.106Z,10.87
2017-11-14T01:45:18.657Z,10.80
2017-11-14T01:47:46.202Z,12.03
2017-11-14T01:50:13.853Z,9.30
2017-11-14T01:52:41.382Z,11.43
2017-11-14T01:55:08.916Z,9.07
2017-11-14T01:57:36.575Z,9.53
2017-11-14T02:00:04.109Z,9.03
2017-11-14T02:02:31.633Z,9.27
2017-11-14T02:04:59.278Z,9.40
2017-11-14T02:07:26.825Z,9.40
2017-11-14T02:09:54.395Z,8.77
2017-11-14T02:12:22.021Z,10.20
2017-11-14T02:14:49.583Z,9.30
2017-11-14T02:17:17.098Z,8.80
2017-11-14T02:19:44.655Z,9.93
2017-11-14T02:22:12.205Z,10.70
2017-11-14T02:24:39.795Z,9.57
2017-11-14T02:27:11.083Z,8.40
2017-11-14T02:29:38.625Z,8.60
2017-11-14T02:32:06.650Z,9.40
2017-11-14T02:34:34.161Z,8.40
2017-11-14T02:37:01.711Z,8.40
2017-11-14T02:39:29.334Z,8.03
2017-11-14T02:41:56.893Z,8.23
2017-11-14T02:44:24.435Z,8.77
2017-11-14T02:46:52.020Z,8.27
2017-11-14T02:49:19.573Z,7.57
2017-11-14T02:51:47.126Z,7.30
2017-11-14T02:54:14.881Z,6.80
2017-11-14T02:56:42.393Z,6.67
2017-11-14T02:59:09.905Z,6.93
2017-11-14T03:01:37.474Z,7.20
2017-11-14T03:04:05.027Z,8.93
2017-11-14T03:06:32.543Z,7.13
2017-11-14T03:09:00.123Z,6.10
2017-11-14T03:11:27.661Z,6.87
2017-11-14T03:13:55.197Z,6.37
2017-11-14T03:16:23.183Z,6.43
2017-11-14T03:18:50.707Z,7.50
2017-11-14T03:21:18.234Z,7.33
2017-11-14T03:23:45.816Z,7.53
2017-11-14T03:26:13.344Z,6.93
2017-11-14T03:28:40.899Z,6.70
2017-11-14T03:31:08.479Z,6.47
2017-11-14T03:33:36.002Z,6.40
2017-11-14T03:36:03.582Z,5.70
2017-11-14T03:38:31.146Z,6.07
2017-11-14T03:40:58.682Z,6.70
2017-11-14T03:43:26.254Z,6.73
2017-11-14T03:45:53.777Z,6.53
2017-11-14T03:48:21.299Z,6.50
2017-11-14T03:50:48.850Z,6.70
2017-11-14T03:53:16.381Z,6.30
2017-11-14T03:55:44.030Z,7.57
2017-11-14T03:58:11.571Z,5.93
2017-11-14T04:00:39.110Z,5.77
2017-11-14T04:03:07.060Z,7.77
2017-11-14T04:05:34.590Z,6.80
2017-11-14T04:08:02.118Z,6.23
2017-11-14T04:10:30.098Z,7.37
2017-11-14T04:12:57.618Z,7.07
2017-11-14T04:15:25.129Z,8.07
2017-11-14T04:17:53.008Z,8.67
2017-11-14T04:20:20.534Z,8.50
2017-11-14T04:22:48.049Z,9.50
2017-11-14T04:25:15.700Z,8.57
2017-11-14T04:27:43.217Z,9.80
2017-11-14T04:30:10.733Z,10.00
2017-11-14T04:32:38.450Z,9.70
2017-11-14T04:35:06.015Z,10.87
2017-11-14T04:37:33.538Z,10.30
2017-11-14T04:40:01.128Z,11.70
2017-11-14T04:42:28.651Z,10.70
2017-11-14T04:44:56.186Z,10.23
2017-11-14T04:47:24.092Z,10.90
2017-11-14T04:49:51.618Z,10.30
2017-11-14T04:52:19.143Z,10.70
2017-11-14T04:54:46.789Z,11.57
2017-11-14T04:57:14.474Z,11.57
2017-11-14T04:59:42.012Z,11.10
2017-11-14T05:02:09.943Z,11.60
2017-11-14T05:04:37.470Z,11.07
2017-11-14T05:07:05.003Z,10.33
2017-11-14T05:09:32.630Z,11.27
2017-11-14T05:12:00.161Z,10.60
2017-11-14T05:14:27.678Z,10.40
2017-11-14T05:16:55.243Z,10.77
2017-11-14T05:19:22.761Z,10.57
2017-11-14T05:21:50.277Z,10.53
2017-11-14T05:24:17.838Z,10.20
2017-11-14T05:26:45.357Z,10.43
2017-11-14T05:29:12.997Z,9.33
2017-11-14T05:31:40.513Z,9.77
2017-11-14T05:34:08.034Z,10.40
2017-11-14T05:36:35.769Z,9.70
2017-11-14T05:39:03.311Z,9.40
2017-11-14T05:41:30.824Z,7.97
2017-11-14T05:43:58.587Z,8.77
2017-11-14T05:46:26.102Z,9.10
2017-11-14T05:48:54.083Z,8.43
2017-11-14T05:51:21.746Z,8.00
2017-11-14T05:53:49.840Z,8.47
2017-11-14T05:56:17.383Z,8.80
2017-11-14T05:58:45.463Z,7.93
2017-11-14T06:01:13.064Z,7.70
2017-11-14T06:03:40.916Z,7.50
2017-11-14T06:06:08.493Z,6.47
2017-11-14T06:08:36.266Z,8.60
2017-11-14T06:11:03.773Z,8.30
2017-11-14T06:13:31.298Z,6.70
2017-11-14T06:15:58.974Z,6.20
2017-11-14T06:18:26.497Z,7.73
2017-11-14T06:20:54.023Z,7.57
2017-11-14T06:23:22.051Z,5.90
2017-11-14T06:25:49.619Z,6.87
2017-11-14T06:28:17.143Z,6.37
2017-11-14T06:30:44.957Z,6.70
2017-11-14T06:33:12.480Z,6.80
2017-11-14T06:35:39.995Z,6.27
2017-11-14T06:38:08.624Z,6.00
2017-11-14T06:40:36.221Z,6.57
2017-11-14T06:43:03.775Z,6.10
2017-11-14T06:45:31.417Z,5.60
2017-11-14T06:47:58.966Z,5.57
2017-11-14T06:50:26.490Z,7.00
2017-11-14T06:52:54.025Z,6.17
2017-11-14T06:55:21.790Z,5.93
2017-11-14T06:57:49.307Z,6.43
2017-11-14T07:00:16.880Z,6.13
2017-11-14T07:02:44.422Z,6.70
2017-11-14T07:05:11.992Z,6.60
2017-11-14T07:07:39.926Z,7.10
2017-11-14T07:10:07.468Z,6.97
2017-11-14T07:12:34.997Z,6.77
2017-11-14T07:15:02.519Z,7.77
2017-11-14T07:17:30.441Z,7.90
2017-11-14T07:19:58.825Z,8.03
2017-11-14T07:22:26.380Z,6.67
2017-11-14T07:24:53.967Z,8.10
2017-11-14T07:27:21.482Z,7.27
2017-11-14T07:29:49.020Z,7.30
2017-11-14T07:32:16.582Z,7.63
2017-11-14T07:34:44.112Z,6.90
2017-11-14T07:37:11.691Z,6.10
2017-11-14T07:39:39.226Z,6.10
2017-11-14T07:42:06.745Z,5.53
2017-11-14T07:44:34.479Z,7.10
2017-11-14T07:47:02.002Z,6.70
2017-11-14T07:49:29.536Z,7.20
2017-11-14T07:51:57.085Z,7.50
2017-11-14T07:54:24.611Z,6.30
2017-11-14T07:56:52.561Z,8.23
2017-11-14T07:59:20.082Z,8.30
2017-11-14T08:01:47.775Z,7.33
2017-11-14T08:04:15.470Z,6.77
2017-11-14T08:06:43.007Z,5.50
2017-11-14T08:09:10.537Z,6.87
2017-11-14T08:11:38.501Z,6.30
2017-11-14T08:14:06.038Z,6.57
2017-11-14T08:16:33.565Z,6.60
2017-11-14T08:19:01.327Z,6.70
2017-11-14T08:21:28.847Z,6.90
2017-11-14T08:23:56.367Z,6.57
2017-11-14T08:26:23.935Z,7.53
2017-11-14T08:28:51.456Z,5.87
2017-11-14T08:31:19.008Z,6.20
2017-11-14T08:33:46.645Z,6.97
2017-11-14T08:36:14.158Z,5.83
2017-11-14T08:38:41.660Z,5.53
2017-11-14T08:41:09.250Z,5.03
2017-11-14T08:43:36.817Z,4.80
2017-11-14T08:46:04.336Z,6.07
2017-11-14T08:48:31.917Z,5.47
2017-11-14T08:50:59.913Z,5.37
2017-11-14T08:53:28.097Z,6.30
2017-11-14T08:55:55.704Z,5.40
2017-11-14T08:58:23.222Z,5.10
2017-11-14T09:00:50.749Z,6.33
2017-11-14T09:03:18.320Z,5.60
2017-11-14T09:05:45.841Z,4.63
2017-11-14T09:08:13.361Z,5.83
2017-11-14T09:10:41.022Z,5.90
2017-11-14T09:13:08.933Z,4.57
2017-11-14T09:15:37.448Z,4.67
2017-11-14T09:18:05.186Z,6.50
2017-11-14T09:20:32.721Z,5.33
2017-11-14T09:23:00.255Z,5.00
2017-11-14T09:25:27.804Z,5.90
2017-11-14T09:27:55.326Z,6.13
2017-11-14T09:30:22.890Z,5.83
2017-11-14T09:32:50.426Z,5.43
2017-11-14T09:35:18.134Z,5.50
2017-11-14T09:37:45.670Z,4.97
2017-11-14T09:40:13.212Z,5.83
2017-11-14T09:42:40.783Z,6.27
2017-11-14T09:45:08.316Z,6.20
2017-11-14T09:47:35.885Z,5.70
2017-11-14T09:50:03.664Z,5.67
2017-11-14T09:52:31.662Z,6.63
2017-11-14T09:54:59.197Z,6.50
2017-11-14T09:57:27.269Z,7.43
2017-11-14T09:59:54.992Z,7.00
2017-11-14T10:02:22.649Z,7.00
2017-11-14T10:04:50.326Z,7.30
2017-11-14T10:07:18.011Z,7.43
2017-11-14T10:09:45.550Z,7.93
2017-11-14T10:12:13.596Z,7.00
2017-11-14T10:14:41.662Z,6.77
2017-11-14T10:17:09.215Z,6.97
2017-11-14T10:19:36.741Z,6.70
2017-11-14T10:22:04.936Z,6.70
2017-11-14T10:24:32.491Z,8.50
2017-11-14T10:27:00.033Z,6.87
2017-11-14T10:29:28.364Z,7.20
2017-11-14T10:31:55.946Z,7.30
2017-11-14T10:34:23.970Z,6.97
2017-11-14T10:36:51.865Z,7.57
2017-11-14T10:39:19.425Z,6.10
2017-11-14T10:41:46.959Z,7.23
2017-11-14T10:44:14.553Z,7.53
2017-11-14T10:46:42.078Z,7.00
2017-11-14T10:49:09.628Z,6.47
2017-11-14T10:51:37.398Z,7.00
2017-11-14T10:54:04.942Z,5.83
2017-11-14T10:56:32.846Z,6.80
2017-11-14T10:59:00.526Z,7.57
2017-11-14T11:01:28.067Z,6.07
2017-11-14T11:03:56.333Z,7.87
2017-11-14T11:06:23.977Z,6.43
2017-11-14T11:08:51.519Z,7.13
2017-11-14T11:11:19.062Z,6.27
2017-11-14T11:13:46.777Z,7.80
2017-11-14T11:16:14.343Z,6.80
2017-11-14T11:18:41.882Z,6.77
2017-11-14T11:21:09.471Z,6.83
2017-11-14T11:23:37.003Z,7.33
2017-11-14T11:26:05.609Z,7.10
2017-11-14T11:28:33.549Z,7.47
2017-11-14T11:31:01.550Z,7.10
2017-11-14T11:33:30.179Z,7.57
2017-11-14T11:35:57.772Z,7.23
2017-11-14T11:38:25.298Z,7.07
2017-11-14T11:40:52.953Z,8.50
2017-11-14T11:43:20.626Z,7.47
2017-11-14T11:45:48.197Z,7.57
2017-11-14T11:48:15.743Z,7.60
2017-11-14T11:50:43.338Z,7.83
2017-11-14T11:53:10.870Z,6.37
2017-11-14T11:55:38.404Z,6.90
2017-11-14T11:58:06.388Z,6.90
2017-11-14T12:00:33.949Z,8.27
2017-11-14T12:03:02.014Z,7.80
2017-11-14T12:05:29.578Z,7.40
2017-11-14T12:07:57.113Z,7.03
2017-11-14T12:10:26.218Z,8.37
2017-11-14T12:12:53.834Z,8.90
2017-11-14T12:15:21.368Z,6.87
2017-11-14T12:17:49.109Z,8.17
2017-11-14T12:20:16.647Z,7.67
2017-11-14T12:22:45.121Z,7.70
2017-11-14T12:25:13.062Z,7.40
2017-11-14T12:27:41.041Z,8.13
2017-11-14T12:30:10.115Z,7.90
2017-11-14T12:32:38.308Z,6.83
2017-11-14T12:35:06.396Z,6.97
2017-11-14T12:37:33.935Z,7.87
2017-11-14T12:40:01.482Z,7.73
2017-11-14T12:42:29.460Z,6.83
2017-11-14T12:44:56.986Z,7.57
2017-11-14T12:47:25.646Z,7.60
2017-11-14T12:49:53.392Z,6.63
2017-11-14T12:52:20.904Z,6.80
2017-11-14T12:54:48.429Z,6.37
2017-11-14T12:57:16.430Z,5.87
2017-11-14T12:59:44.578Z,6.40
2017-11-14T13:02:12.140Z,7.13
2017-11-14T13:04:40.419Z,7.10
2017-11-14T13:07:08.363Z,7.20
2017-11-14T13:09:35.966Z,6.83
2017-11-14T13:12:03.914Z,6.40
2017-11-14T13:14:32.059Z,6.47
2017-11-14T13:16:59.641Z,7.00
2017-11-14T13:19:27.981Z,7.73
2017-11-14T13:21:55.545Z,6.63
2017-11-14T13:24:23.101Z,7.50
2017-11-14T13:26:51.429Z,7.50
2017-11-14T13:29:19.486Z,7.13
2017-11-14T13:31:47.035Z,6.60
2017-11-14T13:34:14.565Z,8.90
2017-11-14T13:36:42.102Z,7.93
2017-11-14T13:39:10.163Z,7.37
2017-11-14T13:41:37.971Z,7.87
2017-11-14T13:44:05.988Z,7.73
2017-11-14T13:46:33.597Z,7.27
2017-11-14T13:49:02.011Z,7.10
2017-11-14T13:51:29.526Z,8.03
2017-11-14T13:53:57.037Z,7.23
2017-11-14T13:56:24.942Z,8.17
2017-11-14T13:58:52.466Z,7.40
2017-11-14T14:01:20.027Z,8.40
2017-11-14T14:03:47.606Z,9.23
2017-11-14T14:06:15.131Z,9.30
2017-11-14T14:08:43.354Z,6.60
2017-11-14T14:11:11.498Z,10.40
2017-11-14T14:13:39.389Z,8.80
2017-11-14T14:16:07.308Z,8.10
2017-11-14T14:18:35.912Z,11.43
2017-11-14T14:21:03.464Z,9.40
2017-11-14T14:23:30.986Z,8.80
2017-11-14T14:25:59.595Z,10.50
2017-11-14T14:28:27.202Z,9.93
2017-11-14T14:30:54.729Z,10.70
2017-11-14T14:33:22.303Z,12.27
2017-11-14T14:35:49.821Z,13.10
2017-11-14T14:38:17.336Z,13.30
2017-11-14T14:40:45.004Z,12.53
2017-11-14T14:43:12.547Z,12.50
2017-11-14T14:45:40.083Z,12.47
2017-11-14T14:48:08.894Z,14.53
2017-11-14T14:50:36.461Z,13.83
2017-11-14T14:53:03.994Z,13.50
2017-11-14T14:55:31.573Z,13.27
2017-11-14T14:57:59.915Z,14.30
2017-11-14T15:00:27.436Z,13.37
2017-11-14T15:02:55.005Z,13.80
2017-11-14T15:05:22.533Z,18.27
2017-11-14T15:07:50.067Z,15.10
2017-11-14T15:10:18.064Z,15.43
2017-11-14T15:12:45.594Z,15.33
2017-11-14T15:15:13.214Z,16.00
2017-11-14T15:17:41.202Z,17.63
2017-11-14T15:20:08.729Z,15.87
2017-11-14T15:22:36.254Z,17.87
2017-11-14T15:25:04.746Z,17.90
2017-11-14T15:27:32.914Z,17.10
2017-11-14T15:30:01.539Z,17.93
2017-11-14T15:32:29.166Z,18.03
2017-11-14T15:34:56.689Z,19.93
2017-11-14T15:37:24.215Z,18.73
2017-11-14T15:39:51.752Z,19.80
2017-11-14T15:42:19.293Z,19.70
2017-11-14T15:44:47.185Z,19.23
2017-11-14T15:47:14.701Z,19.90
2017-11-14T15:49:42.218Z,18.50
2017-11-14T15:52:10.149Z,19.77
2017-11-14T15:54:38.410Z,21.90
2017-11-14T15:57:07.121Z,18.80
2017-11-14T15:59:34.672Z,18.57
2017-11-14T16:02:02.196Z,26.67
2017-11-14T16:04:30.110Z,22.13
2017-11-14T16:06:57.629Z,22.20
2017-11-14T16:09:25.190Z,24.20
2017-11-14T16:11:52.965Z,22.57
2017-11-14T16:14:20.485Z,23.93
2017-11-14T16:16:48.016Z,24.33
2017-11-14T16:19:15.643Z,24.17
2017-11-14T16:21:43.205Z,27.07
2017-11-14T16:24:10.739Z,24.30
2017-11-14T16:26:38.326Z,26.07
2017-11-14T16:29:05.871Z,27.10
2017-11-14T16:31:33.426Z,26.07
2017-11-14T16:34:00.955Z,30.10
2017-11-14T16:36:28.557Z,27.67
2017-11-14T16:38:56.100Z,28.03
2017-11-14T16:41:23.634Z,33.07
2017-11-14T16:43:51.681Z,29.17
2017-11-14T16:46:19.215Z,25.30
2017-11-14T16:48:46.745Z,24.50
2017-11-14T16:51:14.712Z,29.90
2017-11-14T16:53:42.251Z,32.40
2017-11-14T16:56:09.830Z,33.30
2017-11-14T16:58:37.511Z,35.30
2017-11-14T17:01:05.059Z,35.10
2017-11-14T17:03:32.594Z,32.23
2017-11-14T17:06:00.142Z,30.80
2017-11-14T17:08:27.694Z,31.77
2017-11-14T17:10:55.321Z,31.40
2017-11-14T17:13:22.987Z,30.60
2017-11-14T17:15:50.642Z,30.90
2017-11-14T17:18:18.243Z,34.20
2017-11-14T17:20:45.789Z,30.47
2017-11-14T17:23:13.328Z,31.33
2017-11-14T17:25:41.041Z,30.83
2017-11-14T17:28:08.566Z,28.90
2017-11-14T17:30:36.105Z,31.67
2017-11-14T17:33:03.875Z,36.03
2017-11-14T17:35:31.423Z,32.07
2017-11-14T17:37:58.946Z,33.93
2017-11-14T17:40:26.589Z,34.00
2017-11-14T17:42:54.579Z,39.63
2017-11-14T17:45:22.096Z,37.53
2017-11-14T17:47:49.623Z,34.23
2017-11-14T17:50:17.396Z,33.80
2017-11-14T17:52:44.913Z,35.90
2017-11-14T17:55:12.446Z,34.70
2017-11-14T17:57:40.007Z,37.60
2017-11-14T18:00:07.533Z,36.27
2017-11-14T18:02:35.100Z,34.23
2017-11-14T18:05:02.629Z,35.33
2017-11-14T18:07:30.150Z,35.77
2017-11-14T18:09:57.704Z,43.27
2017-11-14T18:12:25.290Z,36.70
2017-11-14T18:14:52.810Z,34.90
2017-11-14T18:17:20.338Z,35.43
2017-11-14T18:19:48.056Z,35.80
2017-11-14T18:22:15.578Z,34.17
2017-11-14T18:24:43.101Z,37.37
2017-11-14T18:27:10.783Z,33.80
2017-11-14T18:29:38.306Z,34.50
2017-11-14T18:32:05.845Z,34.53
2017-11-14T18:34:33.588Z,33.83
2017-11-14T18:37:01.245Z,33.80
2017-11-14T18:39:28.782Z,35.03
2017-11-14T18:41:56.537Z,34.20
2017-11-14T18:44:24.104Z,33.00
2017-11-14T18:46:51.653Z,34.20
2017-11-14T18:49:19.520Z,32.50
2017-11-14T18:51:47.037Z,32.27
2017-11-14T18:54:14.579Z,31.70
2017-11-14T18:56:42.283Z,31.33
2017-11-14T18:59:09.822Z,28.80
2017-11-14T19:01:37.350Z,28.63
2017-11-14T19:04:04.893Z,30.83
2017-11-14T19:06:32.441Z,31.97
2017-11-14T19:09:00.147Z,30.97
2017-11-14T19:11:27.675Z,32.03
2017-11-14T19:13:55.211Z,33.97
2017-11-14T19:16:23.270Z,31.53
2017-11-14T19:18:50.801Z,31.80
2017-11-14T19:21:18.389Z,31.23
2017-11-14T19:23:46.286Z,33.17
2017-11-14T19:26:13.824Z,33.60
2017-11-14T19:28:41.350Z,31.03
2017-11-14T19:31:09.109Z,32.80
2017-11-14T19:33:36.635Z,30.83
2017-11-14T19:36:04.161Z,29.40
2017-11-14T19:38:31.712Z,33.10
2017-11-14T19:40:59.236Z,30.20
2017-11-14T19:43:27.002Z,30.57
2017-11-14T19:45:54.539Z,27.33
2017-11-14T19:48:22.059Z,31.17
2017-11-14T19:50:49.642Z,29.30
2017-11-14T19:53:17.174Z,29.00
2017-11-14T19:55:44.698Z,28.10
2017-11-14T19:58:12.420Z,32.30
2017-11-14T20:00:39.942Z,30.53
2017-11-14T20:03:07.465Z,29.10
2017-11-14T20:05:35.232Z,27.33
2017-11-14T20:08:02.745Z,27.23
2017-11-14T20:10:30.273Z,29.87
2017-11-14T20:12:57.893Z,26.90
2017-11-14T20:15:25.404Z,28.53
2017-11-14T20:17:52.924Z,27.97
2017-11-14T20:20:20.532Z,27.50
2017-11-14T20:22:48.195Z,30.60
2017-11-14T20:25:15.744Z,28.83
2017-11-14T20:27:43.294Z,26.37
2017-11-14T20:30:11.272Z,26.93
2017-11-14T20:32:38.798Z,29.93
2017-11-14T20:35:06.354Z,25.70
2017-11-14T20:37:33.942Z,28.00
2017-11-14T20:40:01.460Z,26.50
2017-11-14T20:42:29.034Z,27.27
2017-11-14T20:44:56.716Z,27.33
2017-11-14T20:47:24.242Z,26.93
2017-11-14T20:49:51.760Z,24.77
2017-11-14T20:52:19.347Z,26.13
2017-11-14T20:54:46.880Z,28.20
2017-11-14T20:57:14.409Z,27.20
2017-11-14T20:59:42.073Z,29.90
2017-11-14T21:02:09.603Z,28.20
2017-11-14T21:04:37.162Z,26.70
2017-11-14T21:07:04.795Z,31.37
2017-11-14T21:09:32.328Z,30.43
2017-11-14T21:11:59.854Z,28.40
2017-11-14T21:14:27.598Z,29.10
2017-11-14T21:16:55.130Z,28.17
2017-11-14T21:19:22.640Z,30.53
2017-11-14T21:21:50.285Z,27.40
2017-11-14T21:24:17.845Z,27.67
2017-11-14T21:26:45.374Z,28.33
2017-11-14T21:29:13.447Z,27.20
2017-11-14T21:31:40.981Z,28.20
2017-11-14T21:34:08.502Z,28.20
2017-11-14T21:36:36.063Z,29.00
2017-11-14T21:39:03.690Z,29.33
2017-11-14T21:41:31.220Z,28.27
2017-11-14T21:43:58.760Z,29.80
2017-11-14T21:46:26.344Z,32.00
2017-11-14T21:48:53.931Z,33.23
2017-11-14T21:51:21.474Z,32.07
2017-11-14T21:53:49.197Z,34.67
2017-11-14T21:56:16.716Z,33.87
2017-11-14T21:58:44.237Z,32.97
2017-11-14T22:01:11.836Z,31.77
2017-11-14T22:03:39.373Z,35.70
2017-11-14T22:06:06.906Z,33.37
2017-11-14T22:08:34.513Z,36.13
2017-11-14T22:11:02.047Z,36.67
2017-11-14T22:13:29.569Z,31.90
2017-11-14T22:15:57.110Z,34.67
2017-11-14T22:18:24.644Z,36.10
2017-11-14T22:20:52.608Z,34.47
2017-11-14T22:23:20.138Z,31.03
2017-11-14T22:25:47.682Z,35.60
2017-11-14T22:28:15.260Z,37.03
2017-11-14T22:30:42.780Z,35.50
2017-11-14T22:33:10.306Z,34.67
2017-11-14T22:35:37.889Z,38.57
2017-11-14T22:38:05.419Z,33.50
2017-11-14T22:40:32.952Z,35.67
2017-11-14T22:43:00.512Z,35.77
2017-11-14T22:45:28.054Z,37.57
2017-11-14T22:47:55.924Z,35.43
2017-11-14T22:50:23.447Z,39.37
2017-11-14T22:52:51.015Z,37.27
2017-11-14T22:55:18.675Z,39.47
2017-11-14T22:57:46.203Z,38.27
2017-11-14T23:00:25.661Z,39.27
2017-11-14T23:02:53.193Z,38.67
2017-11-14T23:05:20.724Z,38.97
2017-11-14T23:07:48.333Z,39.97
2017-11-14T23:10:15.886Z,40.37
2017-11-14T23:12:44.205Z,41.40
2017-11-14T23:15:11.906Z,37.60
2017-11-14T23:17:39.461Z,39.10
2017-11-14T23:20:07.017Z,38.97
2017-11-14T23:22:34.925Z,42.60
2017-11-14T23:25:02.467Z,40.37
2017-11-14T23:27:29.997Z,41.17
2017-11-14T23:29:57.588Z,45.63
2017-11-14T23:32:25.135Z,43.80
2017-11-14T23:34:52.678Z,42.83
2017-11-14T23:37:20.756Z,46.17
2017-11-14T23:39:48.283Z,40.50
2017-11-14T23:42:15.849Z,46.37
2017-11-14T23:44:43.450Z,43.80
2017-11-14T23:47:11.004Z,42.90
2017-11-14T23:49:38.928Z,42.83
2017-11-14T23:52:06.492Z,44.53
2017-11-14T23:54:34.022Z,41.00
2017-11-14T23:57:01.614Z,43.80
2017-11-14T23:59:29.159Z,43.27
